sensor_id;sensor_type;location;lat;lon;timestamp;P1;durP1;ratioP1;P2;durP2;ratioP2
13795;SDS011;40911;51.552;9.874;2022-08-19T00:02:40;16.13;;;11.25;;
13795;SDS011;40911;51.552;9.874;2022-08-19T00:05:02;13.45;;;9.95;;
13795;SDS011;40911;51.552;9.874;2022-08-19T00:07:25;14.60;;;10.93;;
13795;SDS011;40911;51.552;9.874;2022-08-19T00:09:47;12.93;;;10.00;;
13795;SDS011;40911;51.552;9.874;2022-08-19T00:12:08;17.40;;;10.23;;
13795;SDS011;40911;51.552;9.874;2022-08-19T00:14:30;13.07;;;10.07;;
13795;SDS011;40911;51.552;9.874;2022-08-19T00:16:52;15.00;;;9.48;;
13795;SDS011;40911;51.552;9.874;2022-08-19T00:19:16;10.93;;;8.85;;
13795;SDS011;40911;51.552;9.874;2022-08-19T00:21:38;12.07;;;9.05;;
13795;SDS011;40911;51.552;9.874;2022-08-19T00:23:59;17.30;;;9.50;;
13795;SDS011;40911;51.552;9.874;2022-08-19T00:28:42;12.65;;;8.50;;
13795;SDS011;40911;51.552;9.874;2022-08-19T00:31:04;13.00;;;8.50;;
13795;SDS011;40911;51.552;9.874;2022-08-19T00:33:27;14.85;;;9.30;;
13795;SDS011;40911;51.552;9.874;2022-08-19T00:35:52;12.00;;;9.20;;
13795;SDS011;40911;51.552;9.874;2022-08-19T00:38:13;12.88;;;9.48;;
13795;SDS011;40911;51.552;9.874;2022-08-19T00:40:35;10.50;;;8.40;;
13795;SDS011;40911;51.552;9.874;2022-08-19T00:42:57;12.10;;;8.52;;
13795;SDS011;40911;51.552;9.874;2022-08-19T00:45:19;12.95;;;8.60;;
13795;SDS011;40911;51.552;9.874;2022-08-19T00:47:42;13.95;;;9.35;;
13795;SDS011;40911;51.552;9.874;2022-08-19T00:50:05;13.75;;;8.25;;
13795;SDS011;40911;51.552;9.874;2022-08-19T00:52:32;11.15;;;8.73;;
13795;SDS011;40911;51.552;9.874;2022-08-19T00:54:56;10.70;;;8.63;;
13795;SDS011;40911;51.552;9.874;2022-08-19T00:57:20;11.57;;;7.50;;
13795;SDS011;40911;51.552;9.874;2022-08-19T00:59:47;9.65;;;8.57;;
13795;SDS011;40911;51.552;9.874;2022-08-19T01:02:13;13.43;;;8.75;;
13795;SDS011;40911;51.552;9.874;2022-08-19T01:04:36;14.38;;;8.98;;
13795;SDS011;40911;51.552;9.874;2022-08-19T01:06:58;13.65;;;8.07;;
13795;SDS011;40911;51.552;9.874;2022-08-19T01:09:21;12.07;;;8.57;;
13795;SDS011;40911;51.552;9.874;2022-08-19T01:11:43;12.05;;;8.90;;
13795;SDS011;40911;51.552;9.874;2022-08-19T01:14:06;12.10;;;8.18;;
13795;SDS011;40911;51.552;9.874;2022-08-19T01:16:29;10.10;;;8.40;;
13795;SDS011;40911;51.552;9.874;2022-08-19T01:18:51;13.82;;;8.80;;
13795;SDS011;40911;51.552;9.874;2022-08-19T01:21:15;11.73;;;8.13;;
13795;SDS011;40911;51.552;9.874;2022-08-19T01:23:44;10.80;;;8.52;;
13795;SDS011;40911;51.552;9.874;2022-08-19T01:26:06;14.88;;;8.65;;
13795;SDS011;40911;51.552;9.874;2022-08-19T01:28:27;12.27;;;8.65;;
13795;SDS011;40911;51.552;9.874;2022-08-19T01:30:49;10.63;;;8.25;;
13795;SDS011;40911;51.552;9.874;2022-08-19T01:35:32;12.05;;;8.05;;
13795;SDS011;40911;51.552;9.874;2022-08-19T01:37:56;12.13;;;8.80;;
13795;SDS011;40911;51.552;9.874;2022-08-19T01:40:21;8.45;;;7.32;;
13795;SDS011;40911;51.552;9.874;2022-08-19T01:42:45;9.68;;;7.60;;
13795;SDS011;40911;51.552;9.874;2022-08-19T01:45:07;10.35;;;7.25;;
13795;SDS011;40911;51.552;9.874;2022-08-19T01:47:30;10.75;;;6.72;;
13795;SDS011;40911;51.552;9.874;2022-08-19T01:49:51;10.48;;;6.68;;
13795;SDS011;40911;51.552;9.874;2022-08-19T01:54:34;7.88;;;6.18;;
13795;SDS011;40911;51.552;9.874;2022-08-19T01:59:22;9.55;;;6.20;;
13795;SDS011;40911;51.552;9.874;2022-08-19T02:01:45;8.80;;;6.20;;
13795;SDS011;40911;51.552;9.874;2022-08-19T02:06:28;7.90;;;5.95;;
13795;SDS011;40911;51.552;9.874;2022-08-19T02:08:50;7.45;;;6.00;;
13795;SDS011;40911;51.552;9.874;2022-08-19T02:13:40;8.68;;;6.22;;
13795;SDS011;40911;51.552;9.874;2022-08-19T02:16:02;9.13;;;6.18;;
13795;SDS011;40911;51.552;9.874;2022-08-19T02:18:24;9.40;;;6.32;;
13795;SDS011;40911;51.552;9.874;2022-08-19T02:20:46;7.43;;;5.80;;
13795;SDS011;40911;51.552;9.874;2022-08-19T02:23:08;9.75;;;5.90;;
13795;SDS011;40911;51.552;9.874;2022-08-19T02:25:31;8.30;;;6.10;;
13795;SDS011;40911;51.552;9.874;2022-08-19T02:27:53;10.43;;;6.20;;
13795;SDS011;40911;51.552;9.874;2022-08-19T02:30:16;10.15;;;6.55;;
13795;SDS011;40911;51.552;9.874;2022-08-19T02:32:38;6.40;;;5.78;;
13795;SDS011;40911;51.552;9.874;2022-08-19T02:35:02;9.38;;;6.88;;
13795;SDS011;40911;51.552;9.874;2022-08-19T02:37:24;10.68;;;6.43;;
13795;SDS011;40911;51.552;9.874;2022-08-19T02:40:03;8.25;;;5.60;;
13795;SDS011;40911;51.552;9.874;2022-08-19T02:42:26;7.38;;;5.53;;
13795;SDS011;40911;51.552;9.874;2022-08-19T02:47:11;9.93;;;5.97;;
13795;SDS011;40911;51.552;9.874;2022-08-19T02:49:34;7.10;;;5.63;;
13795;SDS011;40911;51.552;9.874;2022-08-19T02:54:17;8.95;;;5.88;;
13795;SDS011;40911;51.552;9.874;2022-08-19T02:56:40;7.45;;;5.82;;
13795;SDS011;40911;51.552;9.874;2022-08-19T02:59:02;9.20;;;6.00;;
13795;SDS011;40911;51.552;9.874;2022-08-19T03:01:31;10.35;;;5.97;;
13795;SDS011;40911;51.552;9.874;2022-08-19T03:03:54;9.00;;;6.10;;
13795;SDS011;40911;51.552;9.874;2022-08-19T03:06:19;7.95;;;6.05;;
13795;SDS011;40911;51.552;9.874;2022-08-19T03:08:42;8.45;;;5.85;;
13795;SDS011;40911;51.552;9.874;2022-08-19T03:11:05;9.38;;;6.10;;
13795;SDS011;40911;51.552;9.874;2022-08-19T03:13:27;8.05;;;6.32;;
13795;SDS011;40911;51.552;9.874;2022-08-19T03:18:11;10.73;;;6.20;;
13795;SDS011;40911;51.552;9.874;2022-08-19T03:20:34;7.13;;;5.05;;
13795;SDS011;40911;51.552;9.874;2022-08-19T03:23:01;7.07;;;5.70;;
13795;SDS011;40911;51.552;9.874;2022-08-19T03:25:23;11.40;;;6.30;;
13795;SDS011;40911;51.552;9.874;2022-08-19T03:27:44;10.95;;;5.90;;
13795;SDS011;40911;51.552;9.874;2022-08-19T03:30:09;7.65;;;5.40;;
13795;SDS011;40911;51.552;9.874;2022-08-19T03:32:32;8.30;;;5.13;;
13795;SDS011;40911;51.552;9.874;2022-08-19T03:37:16;8.48;;;5.57;;
13795;SDS011;40911;51.552;9.874;2022-08-19T03:39:38;7.00;;;5.30;;
13795;SDS011;40911;51.552;9.874;2022-08-19T03:42:01;9.38;;;5.50;;
13795;SDS011;40911;51.552;9.874;2022-08-19T03:44:23;7.57;;;5.50;;
13795;SDS011;40911;51.552;9.874;2022-08-19T03:51:30;8.35;;;5.30;;
13795;SDS011;40911;51.552;9.874;2022-08-19T03:53:56;7.72;;;5.43;;
13795;SDS011;40911;51.552;9.874;2022-08-19T03:56:20;6.43;;;4.93;;
13795;SDS011;40911;51.552;9.874;2022-08-19T03:58:42;6.38;;;5.03;;
13795;SDS011;40911;51.552;9.874;2022-08-19T04:01:07;5.93;;;5.32;;
13795;SDS011;40911;51.552;9.874;2022-08-19T04:03:29;7.10;;;4.82;;
13795;SDS011;40911;51.552;9.874;2022-08-19T04:10:41;9.07;;;5.18;;
13795;SDS011;40911;51.552;9.874;2022-08-19T04:13:03;7.68;;;4.60;;
13795;SDS011;40911;51.552;9.874;2022-08-19T04:15:27;6.50;;;4.70;;
13795;SDS011;40911;51.552;9.874;2022-08-19T04:17:53;8.95;;;4.90;;
13795;SDS011;40911;51.552;9.874;2022-08-19T04:22:36;6.65;;;5.40;;
13795;SDS011;40911;51.552;9.874;2022-08-19T04:24:58;8.25;;;5.00;;
13795;SDS011;40911;51.552;9.874;2022-08-19T04:27:21;7.28;;;4.70;;
13795;SDS011;40911;51.552;9.874;2022-08-19T04:29:43;5.72;;;4.70;;
13795;SDS011;40911;51.552;9.874;2022-08-19T04:34:28;7.13;;;4.32;;
13795;SDS011;40911;51.552;9.874;2022-08-19T04:36:50;7.45;;;4.72;;
13795;SDS011;40911;51.552;9.874;2022-08-19T04:39:14;6.18;;;4.38;;
13795;SDS011;40911;51.552;9.874;2022-08-19T04:41:37;5.18;;;4.00;;
13795;SDS011;40911;51.552;9.874;2022-08-19T04:44:18;7.95;;;4.40;;
13795;SDS011;40911;51.552;9.874;2022-08-19T04:46:40;7.45;;;3.88;;
13795;SDS011;40911;51.552;9.874;2022-08-19T04:51:25;5.30;;;3.47;;
13795;SDS011;40911;51.552;9.874;2022-08-19T04:53:47;4.65;;;3.30;;
13795;SDS011;40911;51.552;9.874;2022-08-19T04:58:31;6.82;;;3.65;;
13795;SDS011;40911;51.552;9.874;2022-08-19T05:03:16;4.32;;;3.17;;
13795;SDS011;40911;51.552;9.874;2022-08-19T05:05:38;5.05;;;3.50;;
13795;SDS011;40911;51.552;9.874;2022-08-19T05:08:01;3.50;;;3.10;;
13795;SDS011;40911;51.552;9.874;2022-08-19T05:10:22;4.20;;;3.10;;
13795;SDS011;40911;51.552;9.874;2022-08-19T05:12:44;6.45;;;3.50;;
13795;SDS011;40911;51.552;9.874;2022-08-19T05:17:30;5.68;;;3.13;;
13795;SDS011;40911;51.552;9.874;2022-08-19T05:19:52;4.85;;;3.35;;
13795;SDS011;40911;51.552;9.874;2022-08-19T05:22:31;4.43;;;3.22;;
13795;SDS011;40911;51.552;9.874;2022-08-19T05:24:55;7.65;;;3.47;;
13795;SDS011;40911;51.552;9.874;2022-08-19T05:29:38;7.57;;;3.75;;
13795;SDS011;40911;51.552;9.874;2022-08-19T05:34:24;5.50;;;4.10;;
13795;SDS011;40911;51.552;9.874;2022-08-19T05:36:47;7.95;;;4.32;;
13795;SDS011;40911;51.552;9.874;2022-08-19T05:39:10;5.22;;;4.50;;
13795;SDS011;40911;51.552;9.874;2022-08-19T05:41:34;6.28;;;4.10;;
13795;SDS011;40911;51.552;9.874;2022-08-19T05:43:56;6.15;;;4.75;;
13795;SDS011;40911;51.552;9.874;2022-08-19T05:46:18;5.28;;;4.10;;
13795;SDS011;40911;51.552;9.874;2022-08-19T05:48:40;5.78;;;4.80;;
13795;SDS011;40911;51.552;9.874;2022-08-19T05:53:26;7.45;;;4.70;;
13795;SDS011;40911;51.552;9.874;2022-08-19T05:55:48;8.18;;;4.60;;
13795;SDS011;40911;51.552;9.874;2022-08-19T06:00:31;6.18;;;4.20;;
13795;SDS011;40911;51.552;9.874;2022-08-19T06:02:53;7.05;;;4.20;;
13795;SDS011;40911;51.552;9.874;2022-08-19T06:05:16;4.97;;;4.47;;
13795;SDS011;40911;51.552;9.874;2022-08-19T06:07:39;4.82;;;3.83;;
13795;SDS011;40911;51.552;9.874;2022-08-19T06:10:01;4.93;;;3.92;;
13795;SDS011;40911;51.552;9.874;2022-08-19T06:12:23;5.65;;;4.13;;
13795;SDS011;40911;51.552;9.874;2022-08-19T06:14:52;5.38;;;4.20;;
13795;SDS011;40911;51.552;9.874;2022-08-19T06:17:14;5.00;;;3.90;;
13795;SDS011;40911;51.552;9.874;2022-08-19T06:21:58;6.93;;;3.95;;
13795;SDS011;40911;51.552;9.874;2022-08-19T06:24:22;5.00;;;3.97;;
13795;SDS011;40911;51.552;9.874;2022-08-19T06:26:47;5.13;;;4.60;;
13795;SDS011;40911;51.552;9.874;2022-08-19T06:29:10;6.18;;;3.90;;
13795;SDS011;40911;51.552;9.874;2022-08-19T06:31:34;7.13;;;4.20;;
13795;SDS011;40911;51.552;9.874;2022-08-19T06:33:56;5.68;;;4.22;;
13795;SDS011;40911;51.552;9.874;2022-08-19T06:38:41;5.97;;;4.38;;
13795;SDS011;40911;51.552;9.874;2022-08-19T06:43:26;5.28;;;3.78;;
13795;SDS011;40911;51.552;9.874;2022-08-19T06:48:11;6.07;;;4.30;;
13795;SDS011;40911;51.552;9.874;2022-08-19T06:52:54;7.78;;;4.47;;
13795;SDS011;40911;51.552;9.874;2022-08-19T06:55:16;6.03;;;4.00;;
13795;SDS011;40911;51.552;9.874;2022-08-19T06:57:39;7.30;;;4.40;;
13795;SDS011;40911;51.552;9.874;2022-08-19T07:00:02;5.90;;;4.45;;
13795;SDS011;40911;51.552;9.874;2022-08-19T07:02:25;7.07;;;4.00;;
13795;SDS011;40911;51.552;9.874;2022-08-19T07:04:47;6.30;;;4.13;;
13795;SDS011;40911;51.552;9.874;2022-08-19T07:07:10;8.38;;;4.10;;
13795;SDS011;40911;51.552;9.874;2022-08-19T07:09:36;9.50;;;3.97;;
13795;SDS011;40911;51.552;9.874;2022-08-19T07:11:59;4.63;;;3.72;;
13795;SDS011;40911;51.552;9.874;2022-08-19T07:14:23;5.22;;;3.72;;
13795;SDS011;40911;51.552;9.874;2022-08-19T07:16:47;6.65;;;3.70;;
13795;SDS011;40911;51.552;9.874;2022-08-19T07:19:10;6.13;;;3.85;;
13795;SDS011;40911;51.552;9.874;2022-08-19T07:21:32;6.15;;;2.95;;
13795;SDS011;40911;51.552;9.874;2022-08-19T07:26:17;3.38;;;2.72;;
13795;SDS011;40911;51.552;9.874;2022-08-19T07:28:41;3.38;;;2.90;;
13795;SDS011;40911;51.552;9.874;2022-08-19T07:31:04;4.05;;;2.42;;
13795;SDS011;40911;51.552;9.874;2022-08-19T07:33:27;3.38;;;2.80;;
13795;SDS011;40911;51.552;9.874;2022-08-19T07:35:52;4.05;;;2.80;;
13795;SDS011;40911;51.552;9.874;2022-08-19T07:38:15;3.80;;;2.80;;
13795;SDS011;40911;51.552;9.874;2022-08-19T07:40:37;5.63;;;2.88;;
13795;SDS011;40911;51.552;9.874;2022-08-19T07:43:00;5.78;;;2.53;;
13795;SDS011;40911;51.552;9.874;2022-08-19T07:45:21;2.70;;;2.50;;
13795;SDS011;40911;51.552;9.874;2022-08-19T07:47:45;7.20;;;2.38;;
13795;SDS011;40911;51.552;9.874;2022-08-19T07:50:08;4.25;;;2.30;;
13795;SDS011;40911;51.552;9.874;2022-08-19T07:52:32;4.45;;;2.72;;
13795;SDS011;40911;51.552;9.874;2022-08-19T07:54:54;2.80;;;2.17;;
13795;SDS011;40911;51.552;9.874;2022-08-19T07:57:16;3.42;;;2.42;;
13795;SDS011;40911;51.552;9.874;2022-08-19T07:59:39;3.65;;;2.80;;
13795;SDS011;40911;51.552;9.874;2022-08-19T08:02:00;2.47;;;2.28;;
13795;SDS011;40911;51.552;9.874;2022-08-19T08:04:23;3.03;;;2.58;;
13795;SDS011;40911;51.552;9.874;2022-08-19T08:07:03;5.22;;;2.60;;
13795;SDS011;40911;51.552;9.874;2022-08-19T08:09:43;5.88;;;2.53;;
13795;SDS011;40911;51.552;9.874;2022-08-19T08:12:07;4.07;;;2.88;;
13795;SDS011;40911;51.552;9.874;2022-08-19T08:14:31;4.18;;;2.30;;
13795;SDS011;40911;51.552;9.874;2022-08-19T08:16:55;2.35;;;2.15;;
13795;SDS011;40911;51.552;9.874;2022-08-19T08:19:17;3.70;;;2.78;;
13795;SDS011;40911;51.552;9.874;2022-08-19T08:21:42;3.05;;;2.47;;
13795;SDS011;40911;51.552;9.874;2022-08-19T08:24:03;3.88;;;2.40;;
13795;SDS011;40911;51.552;9.874;2022-08-19T08:26:25;3.45;;;2.63;;
13795;SDS011;40911;51.552;9.874;2022-08-19T08:28:47;4.53;;;2.60;;
13795;SDS011;40911;51.552;9.874;2022-08-19T08:31:09;4.40;;;2.67;;
13795;SDS011;40911;51.552;9.874;2022-08-19T08:33:30;2.63;;;2.40;;
13795;SDS011;40911;51.552;9.874;2022-08-19T08:35:52;4.25;;;2.78;;
13795;SDS011;40911;51.552;9.874;2022-08-19T08:38:15;3.38;;;2.50;;
13795;SDS011;40911;51.552;9.874;2022-08-19T08:40:39;3.13;;;2.40;;
13795;SDS011;40911;51.552;9.874;2022-08-19T08:43:07;3.92;;;2.53;;
13795;SDS011;40911;51.552;9.874;2022-08-19T08:45:30;2.92;;;2.55;;
13795;SDS011;40911;51.552;9.874;2022-08-19T08:47:54;4.22;;;2.50;;
13795;SDS011;40911;51.552;9.874;2022-08-19T08:50:19;2.95;;;2.70;;
13795;SDS011;40911;51.552;9.874;2022-08-19T08:52:44;2.40;;;2.20;;
13795;SDS011;40911;51.552;9.874;2022-08-19T08:55:10;2.30;;;2.08;;
13795;SDS011;40911;51.552;9.874;2022-08-19T08:57:35;2.70;;;2.40;;
13795;SDS011;40911;51.552;9.874;2022-08-19T09:00:00;4.00;;;2.70;;
13795;SDS011;40911;51.552;9.874;2022-08-19T09:02:26;4.75;;;2.50;;
13795;SDS011;40911;51.552;9.874;2022-08-19T09:04:47;2.83;;;2.22;;
13795;SDS011;40911;51.552;9.874;2022-08-19T09:07:13;2.25;;;2.05;;
13795;SDS011;40911;51.552;9.874;2022-08-19T09:09:45;2.80;;;2.38;;
13795;SDS011;40911;51.552;9.874;2022-08-19T09:12:14;3.55;;;2.20;;
13795;SDS011;40911;51.552;9.874;2022-08-19T09:14:45;3.63;;;2.20;;
13795;SDS011;40911;51.552;9.874;2022-08-19T09:17:09;2.88;;;2.50;;
13795;SDS011;40911;51.552;9.874;2022-08-19T09:19:31;3.72;;;2.42;;
13795;SDS011;40911;51.552;9.874;2022-08-19T09:21:53;3.50;;;2.55;;
13795;SDS011;40911;51.552;9.874;2022-08-19T09:24:15;3.15;;;2.20;;
13795;SDS011;40911;51.552;9.874;2022-08-19T09:26:37;3.53;;;2.20;;
13795;SDS011;40911;51.552;9.874;2022-08-19T09:29:00;3.88;;;2.20;;
13795;SDS011;40911;51.552;9.874;2022-08-19T09:31:26;2.95;;;2.15;;
13795;SDS011;40911;51.552;9.874;2022-08-19T09:33:50;2.80;;;2.33;;
13795;SDS011;40911;51.552;9.874;2022-08-19T09:36:13;2.33;;;2.13;;
13795;SDS011;40911;51.552;9.874;2022-08-19T09:38:36;4.20;;;2.10;;
13795;SDS011;40911;51.552;9.874;2022-08-19T09:41:04;3.28;;;2.10;;
13795;SDS011;40911;51.552;9.874;2022-08-19T09:43:26;2.40;;;2.00;;
13795;SDS011;40911;51.552;9.874;2022-08-19T09:45:49;2.63;;;2.03;;
13795;SDS011;40911;51.552;9.874;2022-08-19T09:48:11;4.28;;;2.10;;
13795;SDS011;40911;51.552;9.874;2022-08-19T09:50:32;3.95;;;1.90;;
13795;SDS011;40911;51.552;9.874;2022-08-19T09:52:55;3.97;;;2.25;;
13795;SDS011;40911;51.552;9.874;2022-08-19T09:55:17;2.05;;;1.83;;
13795;SDS011;40911;51.552;9.874;2022-08-19T09:57:38;3.63;;;1.88;;
13795;SDS011;40911;51.552;9.874;2022-08-19T10:00:00;2.17;;;1.95;;
13795;SDS011;40911;51.552;9.874;2022-08-19T10:02:24;3.55;;;2.35;;
13795;SDS011;40911;51.552;9.874;2022-08-19T10:04:45;4.53;;;2.03;;
13795;SDS011;40911;51.552;9.874;2022-08-19T10:07:25;3.13;;;2.03;;
13795;SDS011;40911;51.552;9.874;2022-08-19T10:09:46;3.15;;;2.03;;
13795;SDS011;40911;51.552;9.874;2022-08-19T10:12:08;4.28;;;2.05;;
13795;SDS011;40911;51.552;9.874;2022-08-19T10:14:30;3.50;;;2.30;;
13795;SDS011;40911;51.552;9.874;2022-08-19T10:16:52;2.05;;;1.77;;
13795;SDS011;40911;51.552;9.874;2022-08-19T10:19:15;2.53;;;1.92;;
13795;SDS011;40911;51.552;9.874;2022-08-19T10:21:36;2.33;;;1.95;;
13795;SDS011;40911;51.552;9.874;2022-08-19T10:23:59;2.95;;;1.80;;
13795;SDS011;40911;51.552;9.874;2022-08-19T10:26:25;3.38;;;1.88;;
13795;SDS011;40911;51.552;9.874;2022-08-19T10:28:48;3.17;;;2.17;;
13795;SDS011;40911;51.552;9.874;2022-08-19T10:31:11;3.75;;;1.83;;
13795;SDS011;40911;51.552;9.874;2022-08-19T10:33:35;3.80;;;2.10;;
13795;SDS011;40911;51.552;9.874;2022-08-19T10:36:02;3.53;;;1.70;;
13795;SDS011;40911;51.552;9.874;2022-08-19T10:38:25;2.53;;;1.80;;
13795;SDS011;40911;51.552;9.874;2022-08-19T10:40:48;4.25;;;2.00;;
13795;SDS011;40911;51.552;9.874;2022-08-19T10:43:10;2.80;;;2.00;;
13795;SDS011;40911;51.552;9.874;2022-08-19T10:45:31;3.20;;;2.08;;
13795;SDS011;40911;51.552;9.874;2022-08-19T10:47:53;3.88;;;1.98;;
13795;SDS011;40911;51.552;9.874;2022-08-19T10:50:15;4.32;;;1.70;;
13795;SDS011;40911;51.552;9.874;2022-08-19T10:52:56;2.40;;;1.73;;
13795;SDS011;40911;51.552;9.874;2022-08-19T10:55:18;2.47;;;1.80;;
13795;SDS011;40911;51.552;9.874;2022-08-19T10:57:59;4.00;;;1.85;;
13795;SDS011;40911;51.552;9.874;2022-08-19T11:00:21;2.15;;;1.60;;
13795;SDS011;40911;51.552;9.874;2022-08-19T11:02:43;4.20;;;1.77;;
13795;SDS011;40911;51.552;9.874;2022-08-19T11:05:06;1.30;;;1.20;;
13795;SDS011;40911;51.552;9.874;2022-08-19T11:07:30;4.72;;;1.30;;
13795;SDS011;40911;51.552;9.874;2022-08-19T11:09:53;2.88;;;1.50;;
13795;SDS011;40911;51.552;9.874;2022-08-19T11:12:15;1.85;;;1.30;;
13795;SDS011;40911;51.552;9.874;2022-08-19T11:14:37;3.17;;;1.35;;
13795;SDS011;40911;51.552;9.874;2022-08-19T11:16:59;2.33;;;1.30;;
13795;SDS011;40911;51.552;9.874;2022-08-19T11:19:22;2.53;;;1.40;;
13795;SDS011;40911;51.552;9.874;2022-08-19T11:21:44;2.55;;;1.50;;
13795;SDS011;40911;51.552;9.874;2022-08-19T11:24:09;2.80;;;1.42;;
13795;SDS011;40911;51.552;9.874;2022-08-19T11:26:33;1.60;;;1.50;;
13795;SDS011;40911;51.552;9.874;2022-08-19T11:28:56;2.05;;;1.38;;
13795;SDS011;40911;51.552;9.874;2022-08-19T11:31:19;1.88;;;1.60;;
13795;SDS011;40911;51.552;9.874;2022-08-19T11:33:44;5.60;;;1.88;;
13795;SDS011;40911;51.552;9.874;2022-08-19T11:36:06;3.33;;;1.40;;
13795;SDS011;40911;51.552;9.874;2022-08-19T11:38:28;4.47;;;1.33;;
13795;SDS011;40911;51.552;9.874;2022-08-19T11:40:54;3.10;;;1.52;;
13795;SDS011;40911;51.552;9.874;2022-08-19T11:43:18;2.15;;;1.35;;
13795;SDS011;40911;51.552;9.874;2022-08-19T11:45:39;2.63;;;1.55;;
13795;SDS011;40911;51.552;9.874;2022-08-19T11:48:01;1.67;;;1.42;;
13795;SDS011;40911;51.552;9.874;2022-08-19T11:50:23;2.75;;;1.45;;
13795;SDS011;40911;51.552;9.874;2022-08-19T11:52:45;1.80;;;1.35;;
13795;SDS011;40911;51.552;9.874;2022-08-19T11:55:07;2.13;;;1.55;;
13795;SDS011;40911;51.552;9.874;2022-08-19T11:57:30;1.75;;;1.42;;
13795;SDS011;40911;51.552;9.874;2022-08-19T11:59:53;1.58;;;1.30;;
13795;SDS011;40911;51.552;9.874;2022-08-19T12:02:14;1.63;;;1.27;;
13795;SDS011;40911;51.552;9.874;2022-08-19T12:04:36;2.22;;;1.35;;
13795;SDS011;40911;51.552;9.874;2022-08-19T12:06:58;1.52;;;1.27;;
13795;SDS011;40911;51.552;9.874;2022-08-19T12:09:19;2.15;;;1.20;;
13795;SDS011;40911;51.552;9.874;2022-08-19T12:11:42;2.85;;;1.30;;
13795;SDS011;40911;51.552;9.874;2022-08-19T12:14:04;2.50;;;1.40;;
13795;SDS011;40911;51.552;9.874;2022-08-19T12:16:28;3.30;;;1.30;;
13795;SDS011;40911;51.552;9.874;2022-08-19T12:18:50;2.08;;;1.38;;
13795;SDS011;40911;51.552;9.874;2022-08-19T12:21:12;1.42;;;1.10;;
13795;SDS011;40911;51.552;9.874;2022-08-19T12:23:34;2.28;;;1.30;;
13795;SDS011;40911;51.552;9.874;2022-08-19T12:25:57;2.45;;;1.50;;
13795;SDS011;40911;51.552;9.874;2022-08-19T12:28:19;3.85;;;1.60;;
13795;SDS011;40911;51.552;9.874;2022-08-19T12:30:42;4.15;;;1.80;;
13795;SDS011;40911;51.552;9.874;2022-08-19T12:33:05;2.88;;;1.73;;
13795;SDS011;40911;51.552;9.874;2022-08-19T12:35:27;2.80;;;1.58;;
13795;SDS011;40911;51.552;9.874;2022-08-19T12:37:50;1.60;;;1.38;;
13795;SDS011;40911;51.552;9.874;2022-08-19T12:40:12;3.28;;;1.77;;
13795;SDS011;40911;51.552;9.874;2022-08-19T12:42:36;2.15;;;1.50;;
13795;SDS011;40911;51.552;9.874;2022-08-19T12:44:57;5.25;;;1.60;;
13795;SDS011;40911;51.552;9.874;2022-08-19T12:47:19;3.78;;;1.25;;
13795;SDS011;40911;51.552;9.874;2022-08-19T12:49:42;2.15;;;1.38;;
13795;SDS011;40911;51.552;9.874;2022-08-19T12:52:04;2.08;;;1.40;;
13795;SDS011;40911;51.552;9.874;2022-08-19T12:54:27;2.65;;;1.73;;
13795;SDS011;40911;51.552;9.874;2022-08-19T12:56:50;3.63;;;1.48;;
13795;SDS011;40911;51.552;9.874;2022-08-19T12:59:12;2.40;;;1.42;;
13795;SDS011;40911;51.552;9.874;2022-08-19T13:01:36;1.77;;;1.58;;
13795;SDS011;40911;51.552;9.874;2022-08-19T13:03:58;2.25;;;1.70;;
13795;SDS011;40911;51.552;9.874;2022-08-19T13:06:21;2.55;;;1.50;;
13795;SDS011;40911;51.552;9.874;2022-08-19T13:08:43;1.95;;;1.75;;
13795;SDS011;40911;51.552;9.874;2022-08-19T13:11:09;3.92;;;1.50;;
13795;SDS011;40911;51.552;9.874;2022-08-19T13:13:32;2.00;;;1.55;;
13795;SDS011;40911;51.552;9.874;2022-08-19T13:15:59;1.70;;;1.60;;
13795;SDS011;40911;51.552;9.874;2022-08-19T13:18:22;1.83;;;1.50;;
13795;SDS011;40911;51.552;9.874;2022-08-19T13:20:45;2.10;;;1.80;;
13795;SDS011;40911;51.552;9.874;2022-08-19T13:23:08;1.50;;;1.30;;
13795;SDS011;40911;51.552;9.874;2022-08-19T13:25:30;2.42;;;1.60;;
13795;SDS011;40911;51.552;9.874;2022-08-19T13:27:52;1.63;;;1.30;;
13795;SDS011;40911;51.552;9.874;2022-08-19T13:30:15;3.20;;;1.30;;
13795;SDS011;40911;51.552;9.874;2022-08-19T13:32:55;3.13;;;1.55;;
13795;SDS011;40911;51.552;9.874;2022-08-19T13:35:34;2.00;;;1.80;;
13795;SDS011;40911;51.552;9.874;2022-08-19T13:37:55;1.30;;;1.20;;
13795;SDS011;40911;51.552;9.874;2022-08-19T13:40:20;1.92;;;1.40;;
13795;SDS011;40911;51.552;9.874;2022-08-19T13:42:47;2.15;;;1.52;;
13795;SDS011;40911;51.552;9.874;2022-08-19T13:45:11;2.38;;;1.27;;
13795;SDS011;40911;51.552;9.874;2022-08-19T13:47:33;5.82;;;1.73;;
13795;SDS011;40911;51.552;9.874;2022-08-19T13:49:55;1.83;;;1.50;;
13795;SDS011;40911;51.552;9.874;2022-08-19T13:52:17;2.33;;;1.60;;
13795;SDS011;40911;51.552;9.874;2022-08-19T13:54:38;4.00;;;1.35;;
13795;SDS011;40911;51.552;9.874;2022-08-19T13:57:01;1.95;;;1.48;;
13795;SDS011;40911;51.552;9.874;2022-08-19T13:59:23;1.80;;;1.30;;
13795;SDS011;40911;51.552;9.874;2022-08-19T14:01:45;3.13;;;1.50;;
13795;SDS011;40911;51.552;9.874;2022-08-19T14:04:07;1.55;;;1.30;;
13795;SDS011;40911;51.552;9.874;2022-08-19T14:06:29;1.70;;;1.60;;
13795;SDS011;40911;51.552;9.874;2022-08-19T14:08:50;1.30;;;1.20;;
13795;SDS011;40911;51.552;9.874;2022-08-19T14:11:13;2.53;;;1.42;;
13795;SDS011;40911;51.552;9.874;2022-08-19T14:13:36;3.47;;;1.50;;
13795;SDS011;40911;51.552;9.874;2022-08-19T14:15:57;2.33;;;1.50;;
13795;SDS011;40911;51.552;9.874;2022-08-19T14:18:19;4.88;;;1.60;;
13795;SDS011;40911;51.552;9.874;2022-08-19T14:20:41;4.55;;;1.52;;
13795;SDS011;40911;51.552;9.874;2022-08-19T14:23:03;2.17;;;1.67;;
13795;SDS011;40911;51.552;9.874;2022-08-19T14:25:27;2.53;;;1.50;;
13795;SDS011;40911;51.552;9.874;2022-08-19T14:27:50;3.85;;;1.60;;
13795;SDS011;40911;51.552;9.874;2022-08-19T14:30:14;3.95;;;1.60;;
13795;SDS011;40911;51.552;9.874;2022-08-19T14:32:37;5.03;;;1.90;;
13795;SDS011;40911;51.552;9.874;2022-08-19T14:34:59;7.35;;;1.63;;
13795;SDS011;40911;51.552;9.874;2022-08-19T14:37:21;6.20;;;1.95;;
13795;SDS011;40911;51.552;9.874;2022-08-19T14:39:42;2.28;;;1.65;;
13795;SDS011;40911;51.552;9.874;2022-08-19T14:42:06;3.53;;;1.60;;
13795;SDS011;40911;51.552;9.874;2022-08-19T14:44:28;3.05;;;1.70;;
13795;SDS011;40911;51.552;9.874;2022-08-19T14:46:53;2.92;;;1.75;;
13795;SDS011;40911;51.552;9.874;2022-08-19T14:49:14;3.72;;;1.58;;
13795;SDS011;40911;51.552;9.874;2022-08-19T14:51:36;2.75;;;1.60;;
13795;SDS011;40911;51.552;9.874;2022-08-19T14:53:58;2.22;;;1.60;;
13795;SDS011;40911;51.552;9.874;2022-08-19T14:56:21;1.60;;;1.50;;
13795;SDS011;40911;51.552;9.874;2022-08-19T14:58:45;3.90;;;1.42;;
13795;SDS011;40911;51.552;9.874;2022-08-19T15:01:07;3.15;;;1.70;;
13795;SDS011;40911;51.552;9.874;2022-08-19T15:03:31;2.75;;;1.50;;
13795;SDS011;40911;51.552;9.874;2022-08-19T15:05:53;1.60;;;1.50;;
13795;SDS011;40911;51.552;9.874;2022-08-19T15:08:16;1.65;;;1.55;;
13795;SDS011;40911;51.552;9.874;2022-08-19T15:10:38;2.25;;;1.50;;
13795;SDS011;40911;51.552;9.874;2022-08-19T15:13:00;2.22;;;1.40;;
13795;SDS011;40911;51.552;9.874;2022-08-19T15:15:22;1.45;;;1.35;;
13795;SDS011;40911;51.552;9.874;2022-08-19T15:17:44;3.97;;;1.77;;
13795;SDS011;40911;51.552;9.874;2022-08-19T15:20:08;2.28;;;1.50;;
13795;SDS011;40911;51.552;9.874;2022-08-19T15:22:32;1.75;;;1.38;;
13795;SDS011;40911;51.552;9.874;2022-08-19T15:24:55;3.47;;;1.45;;
13795;SDS011;40911;51.552;9.874;2022-08-19T15:27:17;3.47;;;1.58;;
13795;SDS011;40911;51.552;9.874;2022-08-19T15:29:38;2.67;;;1.60;;
13795;SDS011;40911;51.552;9.874;2022-08-19T15:32:00;1.52;;;1.42;;
13795;SDS011;40911;51.552;9.874;2022-08-19T15:34:23;2.42;;;1.45;;